Eddystone, Pennsylvania
Current Conditions -  °F | °C
As of 1:54 AM on Sunday 23 Nov 2014 (Local Time) from KPHL Reporting Station
Broken Clouds Broken Clouds  
Wind Chill: 37°   Ceiling: 11000
Heat Index: 42°   Visibility: 10mi
Dew Point: 24°   Wind: 9mph
Humidity: 49%   Direction: 210°SSW
Pressure: 30.24"   Gusts: NA
Location:  39.8649°N, 75.3407°W
Report Text: KPHL 230654Z 21008KT 10SM FEW090 BKN110 06/M04 A3024 RMK AO2 SLP239 T00561044 $
Loading
Personal Weather Stations






























Interactive Weather Map New forecast layout! Learn more

10-Day Weather Forecast

Advertisements
Track Severe Weather on mobile